sensor_id;sensor_type;location;lat;lon;timestamp;pressure;altitude;pressure_sealevel;temperature;humidity
34658;BME280;20865;43.312;27.152;2023-04-10T00:00:21;100715.52;;;14.98;39.36
34658;BME280;20865;43.312;27.152;2023-04-10T00:02:48;100719.28;;;14.94;39.52
34658;BME280;20865;43.312;27.152;2023-04-10T00:05:15;100711.45;;;14.88;39.59
34658;BME280;20865;43.312;27.152;2023-04-10T00:07:42;100714.74;;;14.84;39.36
34658;BME280;20865;43.312;27.152;2023-04-10T00:10:09;100710.59;;;14.65;39.75
34658;BME280;20865;43.312;27.152;2023-04-10T00:12:36;100714.17;;;14.19;40.65
34658;BME280;20865;43.312;27.152;2023-04-10T00:15:03;100714.77;;;13.92;41.27
34658;BME280;20865;43.312;27.152;2023-04-10T00:17:30;100715.23;;;13.91;41.32
34658;BME280;20865;43.312;27.152;2023-04-10T00:19:56;100712.88;;;13.70;41.71
34658;BME280;20865;43.312;27.152;2023-04-10T00:22:24;100707.33;;;13.75;41.91
34658;BME280;20865;43.312;27.152;2023-04-10T00:24:51;100700.08;;;13.77;42.04
34658;BME280;20865;43.312;27.152;2023-04-10T00:27:18;100704.69;;;13.73;42.10
34658;BME280;20865;43.312;27.152;2023-04-10T00:29:44;100702.77;;;13.77;42.10
34658;BME280;20865;43.312;27.152;2023-04-10T00:32:11;100696.19;;;13.74;42.05
34658;BME280;20865;43.312;27.152;2023-04-10T00:34:38;100700.03;;;13.78;41.67
34658;BME280;20865;43.312;27.152;2023-04-10T00:37:05;100698.52;;;13.71;41.73
34658;BME280;20865;43.312;27.152;2023-04-10T00:39:32;100697.86;;;13.76;41.72
34658;BME280;20865;43.312;27.152;2023-04-10T00:41:59;100695.61;;;13.77;41.64
34658;BME280;20865;43.312;27.152;2023-04-10T00:44:26;100690.64;;;13.78;41.72
34658;BME280;20865;43.312;27.152;2023-04-10T00:46:53;100691.04;;;13.79;41.70
34658;BME280;20865;43.312;27.152;2023-04-10T00:49:20;100685.45;;;13.74;41.82
34658;BME280;20865;43.312;27.152;2023-04-10T00:51:47;100681.86;;;13.73;41.83
34658;BME280;20865;43.312;27.152;2023-04-10T00:54:14;100678.38;;;13.71;41.70
34658;BME280;20865;43.312;27.152;2023-04-10T00:56:41;100677.14;;;13.68;41.56
34658;BME280;20865;43.312;27.152;2023-04-10T00:59:08;100676.78;;;13.66;41.25
34658;BME280;20865;43.312;27.152;2023-04-10T01:01:35;100668.62;;;13.57;41.21
34658;BME280;20865;43.312;27.152;2023-04-10T01:04:02;100674.59;;;13.52;41.25
34658;BME280;20865;43.312;27.152;2023-04-10T01:09:09;100667.91;;;13.39;41.66
34658;BME280;20865;43.312;27.152;2023-04-10T01:11:42;100672.59;;;13.33;41.81
34658;BME280;20865;43.312;27.152;2023-04-10T01:16:35;100662.14;;;13.38;41.70
34658;BME280;20865;43.312;27.152;2023-04-10T01:19:06;100663.09;;;13.37;41.78
34658;BME280;20865;43.312;27.152;2023-04-10T01:21:32;100661.27;;;13.37;41.80
34658;BME280;20865;43.312;27.152;2023-04-10T01:29:09;100655.14;;;13.33;41.22
34658;BME280;20865;43.312;27.152;2023-04-10T01:34:16;100656.70;;;13.27;41.60
34658;BME280;20865;43.312;27.152;2023-04-10T01:36:50;100652.27;;;13.26;41.72
34658;BME280;20865;43.312;27.152;2023-04-10T01:39:18;100649.77;;;13.20;41.84
34658;BME280;20865;43.312;27.152;2023-04-10T01:41:46;100645.16;;;13.25;41.79
34658;BME280;20865;43.312;27.152;2023-04-10T01:44:13;100648.53;;;13.17;41.85
34658;BME280;20865;43.312;27.152;2023-04-10T01:46:41;100646.28;;;13.18;41.87
34658;BME280;20865;43.312;27.152;2023-04-10T01:49:09;100645.55;;;13.13;40.82
34658;BME280;20865;43.312;27.152;2023-04-10T01:51:37;100652.05;;;13.06;40.99
34658;BME280;20865;43.312;27.152;2023-04-10T01:54:04;100649.11;;;13.00;41.02
34658;BME280;20865;43.312;27.152;2023-04-10T01:56:31;100650.12;;;12.98;40.93
34658;BME280;20865;43.312;27.152;2023-04-10T01:58:59;100648.48;;;12.94;41.19
34658;BME280;20865;43.312;27.152;2023-04-10T02:01:28;100648.00;;;12.94;41.29
34658;BME280;20865;43.312;27.152;2023-04-10T02:03:55;100652.03;;;12.94;41.26
34658;BME280;20865;43.312;27.152;2023-04-10T02:06:36;100644.95;;;12.92;41.15
34658;BME280;20865;43.312;27.152;2023-04-10T02:09:05;100644.69;;;12.86;41.19
34658;BME280;20865;43.312;27.152;2023-04-10T02:14:04;100648.14;;;12.90;41.13
34658;BME280;20865;43.312;27.152;2023-04-10T02:16:31;100637.18;;;12.84;40.67
34658;BME280;20865;43.312;27.152;2023-04-10T02:18:59;100645.25;;;12.82;40.86
34658;BME280;20865;43.312;27.152;2023-04-10T02:21:27;100645.79;;;12.80;40.70
34658;BME280;20865;43.312;27.152;2023-04-10T02:23:59;100644.04;;;12.66;41.01
34658;BME280;20865;43.312;27.152;2023-04-10T02:26:22;100645.12;;;12.74;41.00
34658;BME280;20865;43.312;27.152;2023-04-10T02:28:49;100637.17;;;12.71;41.47
34658;BME280;20865;43.312;27.152;2023-04-10T02:31:16;100639.28;;;12.61;41.79
34658;BME280;20865;43.312;27.152;2023-04-10T02:33:42;100642.92;;;12.58;41.27
34658;BME280;20865;43.312;27.152;2023-04-10T02:36:09;100640.42;;;12.67;41.21
34658;BME280;20865;43.312;27.152;2023-04-10T02:38:37;100633.34;;;12.64;41.31
34658;BME280;20865;43.312;27.152;2023-04-10T02:41:04;100640.66;;;12.46;41.73
34658;BME280;20865;43.312;27.152;2023-04-10T02:43:31;100631.69;;;12.47;41.96
34658;BME280;20865;43.312;27.152;2023-04-10T02:45:58;100636.95;;;12.50;41.95
34658;BME280;20865;43.312;27.152;2023-04-10T02:48:24;100633.80;;;12.51;41.82
34658;BME280;20865;43.312;27.152;2023-04-10T02:51:01;100637.73;;;12.54;41.85
34658;BME280;20865;43.312;27.152;2023-04-10T02:53:20;100629.95;;;12.46;41.92
34658;BME280;20865;43.312;27.152;2023-04-10T02:55:48;100633.30;;;12.53;41.75
34658;BME280;20865;43.312;27.152;2023-04-10T02:58:14;100622.05;;;12.55;41.65
34658;BME280;20865;43.312;27.152;2023-04-10T03:00:46;100622.73;;;12.61;41.79
34658;BME280;20865;43.312;27.152;2023-04-10T03:03:10;100626.86;;;12.72;41.68
34658;BME280;20865;43.312;27.152;2023-04-10T03:05:37;100627.52;;;12.65;41.42
34658;BME280;20865;43.312;27.152;2023-04-10T03:08:04;100625.88;;;12.74;41.25
34658;BME280;20865;43.312;27.152;2023-04-10T03:10:31;100629.63;;;12.69;40.88
34658;BME280;20865;43.312;27.152;2023-04-10T03:12:57;100631.55;;;12.65;41.08
34658;BME280;20865;43.312;27.152;2023-04-10T03:15:24;100630.77;;;12.61;41.24
34658;BME280;20865;43.312;27.152;2023-04-10T03:17:51;100630.16;;;12.53;41.54
34658;BME280;20865;43.312;27.152;2023-04-10T03:20:18;100633.97;;;12.46;41.28
34658;BME280;20865;43.312;27.152;2023-04-10T03:22:44;100633.78;;;12.37;41.19
34658;BME280;20865;43.312;27.152;2023-04-10T03:25:11;100636.34;;;12.14;41.55
34658;BME280;20865;43.312;27.152;2023-04-10T03:27:38;100628.39;;;12.11;41.84
34658;BME280;20865;43.312;27.152;2023-04-10T03:30:05;100625.34;;;12.08;42.01
34658;BME280;20865;43.312;27.152;2023-04-10T03:32:32;100628.98;;;12.06;41.98
34658;BME280;20865;43.312;27.152;2023-04-10T03:34:59;100628.98;;;12.06;42.00
34658;BME280;20865;43.312;27.152;2023-04-10T03:37:26;100623.59;;;12.07;42.08
34658;BME280;20865;43.312;27.152;2023-04-10T03:39:53;100622.73;;;12.07;41.99
34658;BME280;20865;43.312;27.152;2023-04-10T03:42:19;100635.27;;;12.05;42.28
34658;BME280;20865;43.312;27.152;2023-04-10T03:44:46;100626.30;;;12.06;42.46
34658;BME280;20865;43.312;27.152;2023-04-10T03:47:13;100626.30;;;12.06;42.39
34658;BME280;20865;43.312;27.152;2023-04-10T03:49:40;100619.77;;;12.01;42.45
34658;BME280;20865;43.312;27.152;2023-04-10T03:52:07;100629.63;;;11.99;42.42
34658;BME280;20865;43.312;27.152;2023-04-10T03:54:34;100632.66;;;12.03;42.38
34658;BME280;20865;43.312;27.152;2023-04-10T03:57:01;100632.86;;;11.96;42.50
34658;BME280;20865;43.312;27.152;2023-04-10T03:59:28;100634.50;;;11.86;42.46
34658;BME280;20865;43.312;27.152;2023-04-10T04:01:55;100638.45;;;11.88;42.65
34658;BME280;20865;43.312;27.152;2023-04-10T04:04:22;100639.50;;;11.82;42.90
34658;BME280;20865;43.312;27.152;2023-04-10T04:06:50;100644.42;;;11.81;43.14
34658;BME280;20865;43.312;27.152;2023-04-10T04:09:18;100635.41;;;11.85;43.09
34658;BME280;20865;43.312;27.152;2023-04-10T04:11:45;100644.68;;;11.88;42.94
34658;BME280;20865;43.312;27.152;2023-04-10T04:14:12;100639.77;;;11.89;42.87
34658;BME280;20865;43.312;27.152;2023-04-10T04:16:39;100650.70;;;11.97;42.76
34658;BME280;20865;43.312;27.152;2023-04-10T04:19:05;100650.17;;;11.99;42.84
34658;BME280;20865;43.312;27.152;2023-04-10T04:21:32;100640.31;;;12.01;42.78
34658;BME280;20865;43.312;27.152;2023-04-10T04:23:59;100647.73;;;12.06;42.73
34658;BME280;20865;43.312;27.152;2023-04-10T04:26:26;100638.33;;;12.07;42.73
34658;BME280;20865;43.312;27.152;2023-04-10T04:28:53;100644.84;;;12.13;42.58
34658;BME280;20865;43.312;27.152;2023-04-10T04:31:20;100644.93;;;12.10;42.77
34658;BME280;20865;43.312;27.152;2023-04-10T04:33:46;100644.37;;;12.14;42.83
34658;BME280;20865;43.312;27.152;2023-04-10T04:36:13;100648.80;;;12.15;42.85
34658;BME280;20865;43.312;27.152;2023-04-10T04:38:41;100651.78;;;12.19;42.71
34658;BME280;20865;43.312;27.152;2023-04-10T04:41:10;100642.48;;;12.18;42.59
34658;BME280;20865;43.312;27.152;2023-04-10T04:43:36;100643.25;;;12.21;42.66
34658;BME280;20865;43.312;27.152;2023-04-10T04:46:03;100644.84;;;12.27;42.86
34658;BME280;20865;43.312;27.152;2023-04-10T04:48:30;100643.01;;;12.29;43.02
34658;BME280;20865;43.312;27.152;2023-04-10T04:50:59;100639.20;;;12.36;43.08
34658;BME280;20865;43.312;27.152;2023-04-10T04:53:26;100634.13;;;12.42;43.01
34658;BME280;20865;43.312;27.152;2023-04-10T04:55:53;100641.60;;;12.45;43.15
34658;BME280;20865;43.312;27.152;2023-04-10T04:58:20;100647.67;;;12.50;43.09
34658;BME280;20865;43.312;27.152;2023-04-10T05:00:50;100644.96;;;12.52;43.28
34658;BME280;20865;43.312;27.152;2023-04-10T05:03:17;100651.41;;;12.59;43.48
34658;BME280;20865;43.312;27.152;2023-04-10T05:05:44;100646.09;;;12.71;43.67
34658;BME280;20865;43.312;27.152;2023-04-10T05:08:11;100651.86;;;12.85;44.02
34658;BME280;20865;43.312;27.152;2023-04-10T05:10:37;100651.39;;;12.99;44.13
34658;BME280;20865;43.312;27.152;2023-04-10T05:13:04;100655.41;;;13.13;44.27
34658;BME280;20865;43.312;27.152;2023-04-10T05:15:31;100647.84;;;13.25;44.22
34658;BME280;20865;43.312;27.152;2023-04-10T05:17:58;100650.80;;;13.43;44.23
34658;BME280;20865;43.312;27.152;2023-04-10T05:20:25;100646.30;;;13.55;44.16
34658;BME280;20865;43.312;27.152;2023-04-10T05:22:52;100648.02;;;13.57;44.02
34658;BME280;20865;43.312;27.152;2023-04-10T05:25:18;100653.27;;;13.72;43.74
34658;BME280;20865;43.312;27.152;2023-04-10T05:27:45;100647.02;;;13.83;43.45
34658;BME280;20865;43.312;27.152;2023-04-10T05:30:12;100649.08;;;13.89;43.41
34658;BME280;20865;43.312;27.152;2023-04-10T05:32:39;100655.69;;;13.92;43.41
34658;BME280;20865;43.312;27.152;2023-04-10T05:35:06;100660.75;;;13.99;43.64
34658;BME280;20865;43.312;27.152;2023-04-10T05:37:33;100668.27;;;14.01;43.94
34658;BME280;20865;43.312;27.152;2023-04-10T05:40:00;100660.11;;;14.16;43.98
34658;BME280;20865;43.312;27.152;2023-04-10T05:42:26;100654.78;;;14.26;44.30
34658;BME280;20865;43.312;27.152;2023-04-10T05:44:53;100655.81;;;14.34;44.21
34658;BME280;20865;43.312;27.152;2023-04-10T05:47:20;100659.20;;;14.51;44.19
34658;BME280;20865;43.312;27.152;2023-04-10T05:49:47;100655.05;;;14.64;44.17
34658;BME280;20865;43.312;27.152;2023-04-10T05:52:14;100651.66;;;14.81;44.46
34658;BME280;20865;43.312;27.152;2023-04-10T05:54:40;100652.25;;;14.99;44.13
34658;BME280;20865;43.312;27.152;2023-04-10T05:57:07;100649.41;;;15.13;43.81
34658;BME280;20865;43.312;27.152;2023-04-10T05:59:36;100653.80;;;15.25;43.62
34658;BME280;20865;43.312;27.152;2023-04-10T06:02:02;100651.31;;;15.41;43.47
34658;BME280;20865;43.312;27.152;2023-04-10T06:04:29;100645.76;;;15.55;43.64
34658;BME280;20865;43.312;27.152;2023-04-10T06:06:56;100643.68;;;15.71;43.51
34658;BME280;20865;43.312;27.152;2023-04-10T06:09:23;100653.23;;;15.79;42.98
34658;BME280;20865;43.312;27.152;2023-04-10T06:11:50;100648.38;;;15.87;42.80
34658;BME280;20865;43.312;27.152;2023-04-10T06:14:18;100647.45;;;15.96;42.96
34658;BME280;20865;43.312;27.152;2023-04-10T06:16:45;100650.13;;;16.07;42.95
34658;BME280;20865;43.312;27.152;2023-04-10T06:19:12;100644.69;;;16.17;42.44
34658;BME280;20865;43.312;27.152;2023-04-10T06:21:39;100649.38;;;16.32;42.16
34658;BME280;20865;43.312;27.152;2023-04-10T06:24:06;100647.55;;;16.69;41.59
34658;BME280;20865;43.312;27.152;2023-04-10T06:26:32;100642.23;;;16.67;41.26
34658;BME280;20865;43.312;27.152;2023-04-10T06:28:59;100645.87;;;16.85;41.24
34658;BME280;20865;43.312;27.152;2023-04-10T06:31:26;100644.69;;;16.91;41.08
34658;BME280;20865;43.312;27.152;2023-04-10T06:33:53;100649.91;;;16.94;40.80
34658;BME280;20865;43.312;27.152;2023-04-10T06:36:20;100651.91;;;16.99;40.08
34658;BME280;20865;43.312;27.152;2023-04-10T06:38:47;100649.35;;;17.05;40.14
34658;BME280;20865;43.312;27.152;2023-04-10T06:41:14;100653.96;;;17.11;39.64
34658;BME280;20865;43.312;27.152;2023-04-10T06:43:40;100648.25;;;17.18;39.66
34658;BME280;20865;43.312;27.152;2023-04-10T06:46:07;100643.18;;;17.20;39.45
34658;BME280;20865;43.312;27.152;2023-04-10T06:48:34;100644.77;;;17.24;38.93
34658;BME280;20865;43.312;27.152;2023-04-10T06:51:03;100643.41;;;17.24;39.15
34658;BME280;20865;43.312;27.152;2023-04-10T06:53:29;100637.92;;;17.26;38.99
34658;BME280;20865;43.312;27.152;2023-04-10T06:55:56;100649.91;;;17.29;38.99
34658;BME280;20865;43.312;27.152;2023-04-10T06:58:22;100647.37;;;17.34;39.12
34658;BME280;20865;43.312;27.152;2023-04-10T07:00:49;100645.93;;;17.36;39.33
34658;BME280;20865;43.312;27.152;2023-04-10T07:03:16;100649.14;;;17.27;39.07
34658;BME280;20865;43.312;27.152;2023-04-10T07:05:43;100652.53;;;17.39;39.12
34658;BME280;20865;43.312;27.152;2023-04-10T07:08:10;100651.98;;;17.41;39.41
34658;BME280;20865;43.312;27.152;2023-04-10T07:10:36;100648.80;;;17.42;39.52
34658;BME280;20865;43.312;27.152;2023-04-10T07:13:03;100643.49;;;17.40;39.01
34658;BME280;20865;43.312;27.152;2023-04-10T07:15:30;100642.53;;;17.41;38.89
34658;BME280;20865;43.312;27.152;2023-04-10T07:17:57;100648.39;;;17.58;39.10
34658;BME280;20865;43.312;27.152;2023-04-10T07:20:24;100648.77;;;17.59;38.58
34658;BME280;20865;43.312;27.152;2023-04-10T07:22:52;100645.42;;;17.71;38.06
34658;BME280;20865;43.312;27.152;2023-04-10T07:25:19;100651.91;;;17.84;37.93
34658;BME280;20865;43.312;27.152;2023-04-10T07:27:46;100649.37;;;17.90;37.83
34658;BME280;20865;43.312;27.152;2023-04-10T07:30:13;100651.04;;;17.93;37.79
34658;BME280;20865;43.312;27.152;2023-04-10T07:32:40;100648.62;;;17.95;37.86
34658;BME280;20865;43.312;27.152;2023-04-10T07:35:07;100647.11;;;17.98;37.95
34658;BME280;20865;43.312;27.152;2023-04-10T07:37:34;100648.77;;;18.01;37.43
34658;BME280;20865;43.312;27.152;2023-04-10T07:40:01;100644.88;;;17.98;37.28
34658;BME280;20865;43.312;27.152;2023-04-10T07:42:28;100656.08;;;17.99;37.07
34658;BME280;20865;43.312;27.152;2023-04-10T07:44:55;100650.44;;;18.03;37.10
34658;BME280;20865;43.312;27.152;2023-04-10T07:47:24;100643.96;;;17.90;37.61
34658;BME280;20865;43.312;27.152;2023-04-10T07:49:50;100647.53;;;17.91;37.82
34658;BME280;20865;43.312;27.152;2023-04-10T07:52:17;100644.50;;;17.97;37.47
34658;BME280;20865;43.312;27.152;2023-04-10T07:54:44;100642.50;;;18.00;37.39
34658;BME280;20865;43.312;27.152;2023-04-10T07:57:11;100639.91;;;17.90;37.06
34658;BME280;20865;43.312;27.152;2023-04-10T07:59:37;100635.42;;;17.98;36.94
34658;BME280;20865;43.312;27.152;2023-04-10T08:02:05;100634.39;;;18.00;36.07
34658;BME280;20865;43.312;27.152;2023-04-10T08:04:32;100636.28;;;18.07;35.49
34658;BME280;20865;43.312;27.152;2023-04-10T08:06:59;100635.45;;;18.14;35.48
34658;BME280;20865;43.312;27.152;2023-04-10T08:09:26;100635.78;;;18.23;35.79
34658;BME280;20865;43.312;27.152;2023-04-10T08:11:53;100633.39;;;18.26;35.99
34658;BME280;20865;43.312;27.152;2023-04-10T08:14:20;100634.58;;;18.29;35.54
34658;BME280;20865;43.312;27.152;2023-04-10T08:16:46;100638.46;;;18.32;35.37
34658;BME280;20865;43.312;27.152;2023-04-10T08:19:13;100637.59;;;18.31;35.38
34658;BME280;20865;43.312;27.152;2023-04-10T08:21:40;100630.77;;;18.08;35.28
34658;BME280;20865;43.312;27.152;2023-04-10T08:24:07;100633.16;;;18.30;35.01
34658;BME280;20865;43.312;27.152;2023-04-10T08:26:34;100629.59;;;18.37;35.21
34658;BME280;20865;43.312;27.152;2023-04-10T08:29:00;100619.43;;;18.33;34.79
34658;BME280;20865;43.312;27.152;2023-04-10T08:31:27;100614.16;;;18.39;35.03
34658;BME280;20865;43.312;27.152;2023-04-10T08:33:55;100610.97;;;18.40;34.98
34658;BME280;20865;43.312;27.152;2023-04-10T08:36:22;100607.57;;;18.36;35.45
34658;BME280;20865;43.312;27.152;2023-04-10T08:38:48;100607.81;;;18.47;35.37
34658;BME280;20865;43.312;27.152;2023-04-10T08:41:16;100612.39;;;18.54;35.54
34658;BME280;20865;43.312;27.152;2023-04-10T08:43:43;100600.63;;;18.55;35.15
34658;BME280;20865;43.312;27.152;2023-04-10T08:46:12;100601.73;;;18.67;35.76
34658;BME280;20865;43.312;27.152;2023-04-10T08:51:20;100601.23;;;18.76;36.26
34658;BME280;20865;43.312;27.152;2023-04-10T08:53:43;100608.58;;;18.81;35.72
34658;BME280;20865;43.312;27.152;2023-04-10T08:56:13;100597.96;;;18.85;35.52
34658;BME280;20865;43.312;27.152;2023-04-10T08:58:41;100600.80;;;18.91;35.61
34658;BME280;20865;43.312;27.152;2023-04-10T09:01:09;100597.05;;;18.93;35.84
34658;BME280;20865;43.312;27.152;2023-04-10T09:03:36;100585.80;;;18.92;35.78
34658;BME280;20865;43.312;27.152;2023-04-10T09:06:03;100581.36;;;18.91;35.89
34658;BME280;20865;43.312;27.152;2023-04-10T09:08:30;100580.39;;;18.92;36.44
34658;BME280;20865;43.312;27.152;2023-04-10T09:10:57;100583.92;;;18.78;36.34
34658;BME280;20865;43.312;27.152;2023-04-10T09:13:34;100586.83;;;18.83;36.49
34658;BME280;20865;43.312;27.152;2023-04-10T09:16:02;100581.66;;;18.94;36.59
34658;BME280;20865;43.312;27.152;2023-04-10T09:18:39;100588.44;;;18.94;36.42
34658;BME280;20865;43.312;27.152;2023-04-10T09:21:08;100574.98;;;18.99;36.38
34658;BME280;20865;43.312;27.152;2023-04-10T09:23:35;100576.94;;;18.97;36.70
34658;BME280;20865;43.312;27.152;2023-04-10T09:26:21;100567.88;;;19.27;35.62
34658;BME280;20865;43.312;27.152;2023-04-10T09:28:56;100571.27;;;19.31;36.04
34658;BME280;20865;43.312;27.152;2023-04-10T09:31:28;100571.95;;;19.34;36.20
34658;BME280;20865;43.312;27.152;2023-04-10T09:36:39;100561.12;;;19.48;36.33
34658;BME280;20865;43.312;27.152;2023-04-10T09:39:07;100563.86;;;19.63;36.39
34658;BME280;20865;43.312;27.152;2023-04-10T09:41:34;100561.14;;;19.63;36.75
34658;BME280;20865;43.312;27.152;2023-04-10T09:44:06;100551.88;;;19.67;36.95
34658;BME280;20865;43.312;27.152;2023-04-10T09:46:33;100551.46;;;19.73;36.46
34658;BME280;20865;43.312;27.152;2023-04-10T09:49:00;100547.59;;;19.70;36.75
34658;BME280;20865;43.312;27.152;2023-04-10T09:51:32;100550.78;;;19.77;36.13
34658;BME280;20865;43.312;27.152;2023-04-10T09:53:59;100544.23;;;19.73;36.12
34658;BME280;20865;43.312;27.152;2023-04-10T09:56:26;100545.66;;;19.79;35.44
34658;BME280;20865;43.312;27.152;2023-04-10T09:58:59;100541.59;;;19.79;35.58
34658;BME280;20865;43.312;27.152;2023-04-10T10:01:23;100546.91;;;19.88;35.50
34658;BME280;20865;43.312;27.152;2023-04-10T10:03:52;100530.19;;;19.74;35.07
34658;BME280;20865;43.312;27.152;2023-04-10T10:06:21;100525.02;;;19.84;35.27
34658;BME280;20865;43.312;27.152;2023-04-10T10:08:48;100526.27;;;19.92;34.61
34658;BME280;20865;43.312;27.152;2023-04-10T10:11:20;100522.95;;;20.09;35.23
34658;BME280;20865;43.312;27.152;2023-04-10T10:13:48;100521.67;;;20.07;34.77
34658;BME280;20865;43.312;27.152;2023-04-10T10:16:18;100516.56;;;20.03;35.10
34658;BME280;20865;43.312;27.152;2023-04-10T10:21:27;100520.96;;;20.18;34.42
34658;BME280;20865;43.312;27.152;2023-04-10T10:23:55;100515.66;;;20.16;34.32
34658;BME280;20865;43.312;27.152;2023-04-10T10:26:22;100513.78;;;20.24;33.98
34658;BME280;20865;43.312;27.152;2023-04-10T10:28:50;100507.89;;;20.17;34.18
34658;BME280;20865;43.312;27.152;2023-04-10T10:31:20;100510.89;;;20.20;33.38
34658;BME280;20865;43.312;27.152;2023-04-10T10:33:53;100500.30;;;20.30;33.51
34658;BME280;20865;43.312;27.152;2023-04-10T10:36:18;100498.31;;;20.19;33.41
34658;BME280;20865;43.312;27.152;2023-04-10T10:41:31;100502.18;;;20.15;33.69
34658;BME280;20865;43.312;27.152;2023-04-10T10:44:05;100500.77;;;20.09;33.98
34658;BME280;20865;43.312;27.152;2023-04-10T10:49:00;100497.76;;;20.07;34.58
34658;BME280;20865;43.312;27.152;2023-04-10T10:51:48;100487.41;;;20.06;34.66
34658;BME280;20865;43.312;27.152;2023-04-10T10:54:30;100480.71;;;20.05;34.49
34658;BME280;20865;43.312;27.152;2023-04-10T10:56:57;100475.41;;;20.03;34.86
34658;BME280;20865;43.312;27.152;2023-04-10T11:04:41;100467.18;;;19.97;34.49
34658;BME280;20865;43.312;27.152;2023-04-10T11:07:09;100467.18;;;19.97;34.53
34658;BME280;20865;43.312;27.152;2023-04-10T11:10:09;100459.13;;;20.03;34.46
34658;BME280;20865;43.312;27.152;2023-04-10T11:12:13;100457.31;;;19.96;34.94
34658;BME280;20865;43.312;27.152;2023-04-10T11:14:55;100451.38;;;20.04;35.02
34658;BME280;20865;43.312;27.152;2023-04-10T11:17:09;100451.38;;;20.04;34.99
34658;BME280;20865;43.312;27.152;2023-04-10T11:22:21;100446.53;;;20.09;35.27
34658;BME280;20865;43.312;27.152;2023-04-10T11:24:51;100444.97;;;20.12;35.00
34658;BME280;20865;43.312;27.152;2023-04-10T11:30:24;100429.81;;;20.22;34.97
34658;BME280;20865;43.312;27.152;2023-04-10T11:32:41;100429.82;;;20.35;35.16
34658;BME280;20865;43.312;27.152;2023-04-10T11:35:09;100426.73;;;20.34;35.00
34658;BME280;20865;43.312;27.152;2023-04-10T11:37:36;100429.49;;;20.27;35.02
34658;BME280;20865;43.312;27.152;2023-04-10T11:40:04;100427.36;;;20.25;34.87
34658;BME280;20865;43.312;27.152;2023-04-10T11:42:31;100425.59;;;20.31;34.52
34658;BME280;20865;43.312;27.152;2023-04-10T11:44:57;100422.09;;;20.29;34.46
34658;BME280;20865;43.312;27.152;2023-04-10T11:47:25;100414.04;;;20.35;34.62
34658;BME280;20865;43.312;27.152;2023-04-10T11:49:52;100417.16;;;20.29;34.56
34658;BME280;20865;43.312;27.152;2023-04-10T11:52:24;100417.53;;;20.37;34.66
34658;BME280;20865;43.312;27.152;2023-04-10T11:54:51;100415.10;;;20.19;34.68
34658;BME280;20865;43.312;27.152;2023-04-10T11:57:18;100414.57;;;20.27;34.70
34658;BME280;20865;43.312;27.152;2023-04-10T11:59:48;100406.39;;;20.34;34.82
34658;BME280;20865;43.312;27.152;2023-04-10T12:02:13;100404.38;;;20.31;35.29
34658;BME280;20865;43.312;27.152;2023-04-10T12:04:41;100402.86;;;20.27;35.46
34658;BME280;20865;43.312;27.152;2023-04-10T12:07:08;100401.34;;;20.22;35.91
34658;BME280;20865;43.312;27.152;2023-04-10T12:09:35;100392.30;;;20.09;36.22
34658;BME280;20865;43.312;27.152;2023-04-10T12:12:06;100400.19;;;20.19;35.64
34658;BME280;20865;43.312;27.152;2023-04-10T12:14:33;100383.09;;;20.12;35.92
34658;BME280;20865;43.312;27.152;2023-04-10T12:17:01;100388.19;;;20.16;35.93
34658;BME280;20865;43.312;27.152;2023-04-10T12:19:28;100385.56;;;20.15;35.99
34658;BME280;20865;43.312;27.152;2023-04-10T12:21:56;100378.83;;;20.08;36.36
34658;BME280;20865;43.312;27.152;2023-04-10T12:24:43;100383.75;;;20.28;35.81
34658;BME280;20865;43.312;27.152;2023-04-10T12:27:23;100380.58;;;20.41;35.77
34658;BME280;20865;43.312;27.152;2023-04-10T12:29:51;100378.86;;;20.20;36.20
34658;BME280;20865;43.312;27.152;2023-04-10T12:32:19;100376.06;;;20.02;36.42
34658;BME280;20865;43.312;27.152;2023-04-10T12:34:57;100377.91;;;20.02;36.60
34658;BME280;20865;43.312;27.152;2023-04-10T12:40:11;100376.11;;;20.08;36.64
34658;BME280;20865;43.312;27.152;2023-04-10T12:42:41;100367.36;;;19.97;36.34
34658;BME280;20865;43.312;27.152;2023-04-10T12:45:08;100371.30;;;20.06;36.43
34658;BME280;20865;43.312;27.152;2023-04-10T12:47:43;100366.24;;;19.87;36.41
34658;BME280;20865;43.312;27.152;2023-04-10T12:50:15;100372.90;;;19.95;36.20
34658;BME280;20865;43.312;27.152;2023-04-10T12:52:45;100363.61;;;19.92;36.25
34658;BME280;20865;43.312;27.152;2023-04-10T12:57:43;100361.23;;;19.88;37.09
34658;BME280;20865;43.312;27.152;2023-04-10T13:00:11;100354.50;;;19.93;36.95
34658;BME280;20865;43.312;27.152;2023-04-10T13:02:39;100355.31;;;19.88;36.82
34658;BME280;20865;43.312;27.152;2023-04-10T13:05:06;100358.80;;;19.83;37.19
34658;BME280;20865;43.312;27.152;2023-04-10T13:07:34;100362.50;;;19.82;37.82
34658;BME280;20865;43.312;27.152;2023-04-10T13:10:02;100369.22;;;19.62;39.49
34658;BME280;20865;43.312;27.152;2023-04-10T13:12:30;100366.92;;;19.49;41.83
34658;BME280;20865;43.312;27.152;2023-04-10T13:14:57;100365.89;;;19.44;42.37
34658;BME280;20865;43.312;27.152;2023-04-10T13:17:24;100362.95;;;19.55;42.25
34658;BME280;20865;43.312;27.152;2023-04-10T13:19:52;100353.89;;;19.41;42.75
34658;BME280;20865;43.312;27.152;2023-04-10T13:22:19;100355.17;;;19.43;42.68
34658;BME280;20865;43.312;27.152;2023-04-10T13:24:45;100360.17;;;19.42;43.30
34658;BME280;20865;43.312;27.152;2023-04-10T13:27:12;100365.83;;;19.39;43.94